WetterOnline ( http://www.wetteronline.de )

Wetter aktuell Salzburg

Aktuelles Wetter: Salzburg Flughafen (450m)

6-stündlich | Neueste Meldungen
Ortszeit Temperatur Wetter
Di, 11.12. 19:00 2.4° C bewölkt
Di, 11.12. 13:00 2.6° C bewölkt
Di, 11.12. 7:00 0.9° C leichter Schneefall
Di, 11.12. 1:00 2.2° C leichte Schauer
Mo, 10.12. 19:00 1.9° C bewölkt
Mo, 10.12. 13:00 2.0° C Schneeregenschauer
Mo, 10.12. 7:00 2.4° C Schneeregenschauer
Mo, 10.12. 1:00 5.5° C leichte Schauer
Ortszeit Temperatur Wetter
Di, 11.12. 19:50 2° C bewölkt
Di, 11.12. 19:20 2° C bewölkt
Di, 11.12. 19:00 2.4° C bewölkt
Di, 11.12. 18:50 2° C bewölkt
Di, 11.12. 18:20 3° C bewölkt
Di, 11.12. 18:00 2.3° C bewölkt
Di, 11.12. 17:50 2° C bewölkt
Di, 11.12. 17:20 2° C bewölkt
Di, 11.12. 17:00 1.0° C wolkig
Di, 11.12. 16:20 1° C bewölkt
Ortszeit Relative Feuchte Sichtweite
Di, 11.12. 19:00 68% 70 km
Di, 11.12. 13:00 68% 65 km
Di, 11.12. 7:00 83% 21 km
Di, 11.12. 1:00 73% 30 km
Mo, 10.12. 19:00 87% 50 km
Mo, 10.12. 13:00 92% 15 km
Mo, 10.12. 7:00 89% 12 km
Mo, 10.12. 1:00 79% 28 km
Ortszeit Relative Feuchte Sichtweite
Di, 11.12. 19:50 69% >10 km
Di, 11.12. 19:20 69% >10 km
Di, 11.12. 19:00 68% 70 km
Di, 11.12. 18:50 69% >10 km
Di, 11.12. 18:20 65% >10 km
Di, 11.12. 18:00 68% 65 km
Di, 11.12. 17:50 69% >10 km
Di, 11.12. 17:20 69% >10 km
Di, 11.12. 17:00 83% 50 km
Di, 11.12. 16:20 80% >10 km
Ortszeit Niederschlagsmenge Niederschlagsart
Di, 11.12. 19:00 0.3 l/m2 in 12 Std. -
Di, 11.12. 13:00 0.2 l/m2 in 6 Std. -
Di, 11.12. 7:00 0.5 l/m2 in 12 Std. -
Di, 11.12. 1:00 0.3 l/m2 in 6 Std. -
Mo, 10.12. 19:00 6 l/m2 in 12 Std. -
Mo, 10.12. 13:00 5 l/m2 in 6 Std. -
Mo, 10.12. 7:00 6 l/m2 in 12 Std. -
Mo, 10.12. 1:00 3 l/m2 in 6 Std. -
Ortszeit Niederschlagsmenge Niederschlagsart
Di, 11.12. 19:50 keine Meldung -
Di, 11.12. 19:20 keine Meldung -
Di, 11.12. 19:00 0.1 l/m2 in 1 Std. -
Di, 11.12. 18:50 keine Meldung -
Di, 11.12. 18:20 keine Meldung -
Di, 11.12. 18:00 0.1 l/m2 in 1 Std. -
Di, 11.12. 17:50 keine Meldung -
Di, 11.12. 17:20 keine Meldung -
Di, 11.12. 17:00 0.1 l/m2 in 1 Std. -
Di, 11.12. 16:20 keine Meldung -
Ortszeit Stärke Spitze Richtung
km/h Bft. km/h Grad Sektor
Di, 11.12. 19:00 18 3 50 270° W
Di, 11.12. 13:00 18 3 50 270° W
Di, 11.12. 7:00 14 3 47 250° W
Di, 11.12. 1:00 22 4 54 280° W
Mo, 10.12. 19:00 7 2 50 - -
Mo, 10.12. 13:00 14 3 47 330° NW
Mo, 10.12. 7:00 22 4 58 280° W
Mo, 10.12. 1:00 22 4 68 280° W
Ortszeit Stärke Spitze Richtung
km/h Bft. km/h Grad Sektor
Di, 11.12. 19:50 15 3 - 260° W
Di, 11.12. 19:20 13 3 - 280° W
Di, 11.12. 19:00 18 3 50 270° W
Di, 11.12. 18:50 19 3 - 270° W
Di, 11.12. 18:20 20 4 - 280° W
Di, 11.12. 18:00 18 3 - 270° W
Di, 11.12. 17:50 17 3 - 270° W
Di, 11.12. 17:20 19 3 - 290° W
Di, 11.12. 17:00 11 2 - - -
Di, 11.12. 16:20 15 3 - 270° W
Ortszeit Untergrenze Bedeckung Gattung
total tief tief mittel hoch
Di, 11.12. 19:00 450 m 7/8 6/8 Cu - -
Di, 11.12. 13:00 750 m 7/8 6/8 Cu - -
Di, 11.12. 7:00 300 m 8/8 6/8 St - -
Di, 11.12. 1:00 960 m 8/8 5/8 - - -
Mo, 10.12. 19:00 270 m 7/8 5/8 St - -
Mo, 10.12. 13:00 150 m 8/8 6/8 St - -
Mo, 10.12. 7:00 210 m 8/8 6/8 St - -
Mo, 10.12. 1:00 540 m 8/8 6/8 - - -
Ortszeit Bedeckungsgrad in Achtel und Wolkenuntergrenze
Di, 11.12. 19:50 1-2(600m) 3-4(1050m) 7(1500m)
Di, 11.12. 19:20 1-2(450m) 3-4(900m) 5-7(1500m)
Di, 11.12. 19:00 1(450m) 3(900m) 6(1500m)
Di, 11.12. 18:50 1-2(450m) 3-4(900m) 5-7(1500m)
Di, 11.12. 18:20 1-2(450m) 3-4(900m) 5-7(1350m)
Di, 11.12. 18:00 1(750m) 6(1500m)
Di, 11.12. 17:50 1-2(750m) 5-7(1500m)
Di, 11.12. 17:20 1-2(750m) 5-7(1800m)
Di, 11.12. 17:00 1(540m) 3(1200m) 6(1800m)
Di, 11.12. 16:20 1-2(360m) 3-4(1050m) 7(1800m)
Ortszeit Luftdruck NN (hPa) Tendenz (hPa in 3 Std.)
Di, 11.12. 19:00 1023 - 0,1
Di, 11.12. 13:00 1023 + 0,4
Di, 11.12. 7:00 1022 + 0,1
Di, 11.12. 1:00 1021 + 1,1
Mo, 10.12. 19:00 1021 - 0,1
Mo, 10.12. 13:00 1022 + 0,5
Mo, 10.12. 7:00 1018 + 1,9
Mo, 10.12. 1:00 1013 + 2,7
Ortszeit Luftdruck NN (hPa) Tendenz (hPa in 3 Std.)
Di, 11.12. 19:50 1021 keine Meldung
Di, 11.12. 19:20 1021 keine Meldung
Di, 11.12. 19:00 1023 - 0,1
Di, 11.12. 18:50 1021 keine Meldung
Di, 11.12. 18:20 1021 keine Meldung
Di, 11.12. 18:00 1023 0,0
Di, 11.12. 17:50 1021 keine Meldung
Di, 11.12. 17:20 1021 keine Meldung
Di, 11.12. 17:00 1023 + 0,5
Di, 11.12. 16:20 1021 keine Meldung
Ortszeit Schneehöhe (cm)
Di, 11.12. 19:00 -
Di, 11.12. 13:00 -
Di, 11.12. 7:00 -
Di, 11.12. 1:00 -
Mo, 10.12. 19:00 -
Mo, 10.12. 13:00 -
Mo, 10.12. 7:00 -
Mo, 10.12. 1:00 -
Ortszeit Schneehöhe (cm)
Di, 11.12. 19:50 -
Di, 11.12. 19:20 -
Di, 11.12. 19:00 -
Di, 11.12. 18:50 -
Di, 11.12. 18:20 -
Di, 11.12. 18:00 -
Di, 11.12. 17:50 -
Di, 11.12. 17:20 -
Di, 11.12. 17:00 -
Di, 11.12. 16:20 -
Link zu dieser Seite / Seite empfehlen

Das Wetter in ...